createdAt,value
2023-07-26T00:01:39.175Z,8.23
2023-07-26T00:04:06.289Z,7.60
2023-07-26T00:06:33.025Z,6.50
2023-07-26T00:08:59.623Z,8.73
2023-07-26T00:11:26.075Z,6.60
2023-07-26T00:13:52.514Z,6.13
2023-07-26T00:16:19.162Z,6.83
2023-07-26T00:18:45.675Z,4.43
2023-07-26T00:21:12.111Z,7.73
2023-07-26T00:23:38.577Z,6.73
2023-07-26T00:26:04.989Z,3.57
2023-07-26T00:28:31.477Z,4.10
2023-07-26T00:30:57.974Z,3.23
2023-07-26T00:33:24.483Z,6.93
2023-07-26T00:35:50.999Z,7.93
2023-07-26T00:38:17.672Z,4.60
2023-07-26T00:40:44.386Z,6.27
2023-07-26T00:43:11.131Z,7.40
2023-07-26T00:45:40.214Z,4.20
2023-07-26T00:48:07.226Z,5.43
2023-07-26T00:50:33.767Z,8.33
2023-07-26T00:53:00.334Z,7.10
2023-07-26T00:55:27.104Z,5.70
2023-07-26T00:57:53.613Z,5.60
2023-07-26T01:00:20.079Z,5.60
2023-07-26T01:02:47.045Z,3.20
2023-07-26T01:05:13.598Z,4.17
2023-07-26T01:07:53.175Z,5.60
2023-07-26T01:10:26.454Z,6.77
2023-07-26T01:13:18.250Z,3.23
2023-07-26T01:15:46.917Z,6.13
2023-07-26T01:18:17.692Z,9.80
2023-07-26T01:20:44.498Z,9.30
2023-07-26T01:23:11.231Z,7.20
2023-07-26T01:25:37.751Z,2.90
2023-07-26T01:28:04.769Z,3.20
2023-07-26T01:30:33.708Z,8.43
2023-07-26T01:33:01.635Z,6.63
2023-07-26T01:35:29.058Z,4.13
2023-07-26T01:37:56.287Z,5.17
2023-07-26T01:40:23.419Z,7.33
2023-07-26T01:42:50.522Z,6.77
2023-07-26T01:45:17.138Z,3.30
2023-07-26T01:47:43.606Z,4.83
2023-07-26T01:50:10.527Z,3.73
2023-07-26T01:52:37.148Z,4.13
2023-07-26T01:55:04.241Z,5.93
2023-07-26T01:57:30.669Z,4.80
2023-07-26T01:59:57.186Z,2.80
2023-07-26T02:02:23.963Z,4.80
2023-07-26T02:04:50.684Z,3.23
2023-07-26T02:07:17.106Z,7.23
2023-07-26T02:09:44.637Z,6.07
2023-07-26T02:12:11.069Z,3.90
2023-07-26T02:14:37.503Z,10.77
2023-07-26T02:17:03.952Z,7.33
2023-07-26T02:19:30.371Z,8.53
2023-07-26T02:21:56.807Z,3.80
2023-07-26T02:24:23.300Z,5.87
2023-07-26T02:26:49.710Z,4.43
2023-07-26T02:29:16.158Z,6.37
2023-07-26T02:31:42.697Z,7.93
2023-07-26T02:34:09.170Z,5.63
2023-07-26T02:36:35.584Z,4.27
2023-07-26T02:39:02.006Z,7.53
2023-07-26T02:41:28.468Z,8.10
2023-07-26T02:43:54.942Z,6.27
2023-07-26T02:46:21.393Z,6.13
2023-07-26T02:48:47.852Z,8.47
2023-07-26T02:51:14.319Z,5.63
2023-07-26T02:53:40.819Z,4.70
2023-07-26T02:56:07.302Z,4.57
2023-07-26T02:58:33.711Z,5.57
2023-07-26T03:01:00.194Z,10.07
2023-07-26T03:03:26.808Z,5.20
2023-07-26T03:05:53.327Z,5.17
2023-07-26T03:08:19.755Z,5.17
2023-07-26T03:10:46.214Z,7.10
2023-07-26T03:13:12.652Z,5.30
2023-07-26T03:15:40.520Z,5.77
2023-07-26T03:18:07.106Z,4.03
2023-07-26T03:20:33.546Z,5.70
2023-07-26T03:23:00.054Z,6.60
2023-07-26T03:25:26.529Z,6.53
2023-07-26T03:27:52.958Z,7.47
2023-07-26T03:30:19.561Z,6.30
2023-07-26T03:32:46.054Z,4.70
2023-07-26T03:35:12.522Z,4.33
2023-07-26T03:37:38.991Z,5.57
2023-07-26T03:40:05.985Z,6.43
2023-07-26T03:42:32.411Z,6.77
2023-07-26T03:44:58.818Z,6.37
2023-07-26T03:47:25.271Z,4.83
2023-07-26T03:49:51.677Z,6.47
2023-07-26T03:52:18.097Z,5.90
2023-07-26T03:54:45.893Z,5.47
2023-07-26T03:57:12.349Z,5.57
2023-07-26T03:59:38.774Z,6.27
2023-07-26T04:02:05.714Z,5.37
2023-07-26T04:04:34.091Z,5.90
2023-07-26T04:07:00.735Z,5.73
2023-07-26T04:09:27.174Z,6.27
2023-07-26T04:11:56.286Z,7.63
2023-07-26T04:14:23.184Z,5.40
2023-07-26T04:16:50.534Z,9.27
2023-07-26T04:19:17.014Z,5.83
2023-07-26T04:21:43.460Z,6.97
2023-07-26T04:24:09.926Z,5.97
2023-07-26T04:26:36.465Z,4.20
2023-07-26T04:29:02.908Z,3.03
2023-07-26T04:31:29.353Z,3.90
2023-07-26T04:33:55.871Z,5.20
2023-07-26T04:36:22.340Z,5.70
2023-07-26T04:38:48.764Z,4.47
2023-07-26T04:41:15.233Z,5.40
2023-07-26T04:43:41.673Z,4.83
2023-07-26T04:46:08.098Z,5.37
2023-07-26T04:48:34.590Z,4.43
2023-07-26T04:51:01.015Z,6.50
2023-07-26T04:53:27.473Z,3.60
2023-07-26T04:55:53.932Z,5.40
2023-07-26T04:58:20.365Z,4.10
2023-07-26T05:00:47.031Z,5.77
2023-07-26T05:03:13.732Z,5.70
2023-07-26T05:05:40.726Z,9.33
2023-07-26T05:08:08.019Z,4.73
2023-07-26T05:10:35.414Z,5.60
2023-07-26T05:13:01.928Z,4.20
2023-07-26T05:15:28.471Z,5.83
2023-07-26T05:17:54.972Z,6.93
2023-07-26T05:20:21.464Z,3.50
2023-07-26T05:22:47.905Z,6.63
2023-07-26T05:25:14.409Z,5.87
2023-07-26T05:27:40.829Z,6.53
2023-07-26T05:30:07.870Z,4.90
2023-07-26T05:32:34.450Z,6.33
2023-07-26T05:35:00.965Z,4.43
2023-07-26T05:37:27.428Z,5.63
2023-07-26T05:39:53.906Z,9.47
2023-07-26T05:42:20.341Z,5.97
2023-07-26T05:44:46.829Z,9.80
2023-07-26T05:47:14.790Z,4.97
2023-07-26T05:49:44.927Z,7.27
2023-07-26T05:52:11.516Z,4.70
2023-07-26T05:54:38.018Z,5.33
2023-07-26T05:57:04.999Z,5.80
2023-07-26T05:59:31.529Z,5.47
2023-07-26T06:01:59.758Z,5.73
2023-07-26T06:04:26.586Z,7.77
2023-07-26T06:06:53.023Z,6.10
2023-07-26T06:09:22.136Z,5.30
2023-07-26T06:11:56.526Z,6.83
2023-07-26T06:14:25.795Z,7.60
2023-07-26T06:16:52.813Z,5.00
2023-07-26T06:19:19.319Z,4.33
2023-07-26T06:21:45.759Z,3.93
2023-07-26T06:24:12.164Z,6.87
2023-07-26T06:26:38.954Z,6.17
2023-07-26T06:29:05.801Z,5.97
2023-07-26T06:31:32.462Z,7.57
2023-07-26T06:33:59.095Z,4.97
2023-07-26T06:36:25.800Z,6.03
2023-07-26T06:38:52.205Z,6.23
2023-07-26T06:41:18.746Z,6.87
2023-07-26T06:43:45.258Z,7.07
2023-07-26T06:46:11.754Z,7.57
2023-07-26T06:48:38.477Z,5.50
2023-07-26T06:51:05.532Z,5.63
2023-07-26T06:53:32.368Z,5.00
2023-07-26T06:55:59.733Z,3.43
2023-07-26T06:58:26.349Z,6.43
2023-07-26T07:00:53.755Z,2.90
2023-07-26T07:03:20.202Z,7.23
2023-07-26T07:05:46.730Z,5.83
2023-07-26T07:08:13.390Z,3.93
2023-07-26T07:10:39.857Z,5.53
2023-07-26T07:13:06.554Z,6.87
2023-07-26T07:15:33.022Z,7.50
2023-07-26T07:18:13.671Z,8.37
2023-07-26T07:20:42.093Z,7.03
2023-07-26T07:23:09.958Z,6.47
2023-07-26T07:25:39.295Z,3.63
2023-07-26T07:28:05.716Z,3.30
2023-07-26T07:30:33.602Z,9.63
2023-07-26T07:33:00.303Z,4.33
2023-07-26T07:35:26.876Z,4.07
2023-07-26T07:37:53.347Z,3.93
2023-07-26T07:40:20.120Z,3.53
2023-07-26T07:42:46.557Z,6.63
2023-07-26T07:45:13.057Z,4.50
2023-07-26T07:47:39.695Z,2.97
2023-07-26T07:50:06.833Z,5.37
2023-07-26T07:52:33.846Z,3.60
2023-07-26T07:55:00.273Z,4.63
2023-07-26T07:57:26.945Z,3.63
2023-07-26T07:59:55.014Z,5.23
2023-07-26T08:02:24.389Z,4.63
2023-07-26T08:04:50.854Z,4.87
2023-07-26T08:07:17.327Z,3.93
2023-07-26T08:09:43.834Z,3.83
2023-07-26T08:12:10.656Z,3.43
2023-07-26T08:14:37.078Z,3.23
2023-07-26T08:17:03.700Z,2.87
2023-07-26T08:19:30.246Z,3.27
2023-07-26T08:21:56.831Z,4.50
2023-07-26T08:24:26.743Z,1.77
2023-07-26T08:26:53.695Z,2.87
2023-07-26T08:29:20.159Z,3.03
2023-07-26T08:31:46.672Z,4.13
2023-07-26T08:34:13.118Z,2.67
2023-07-26T08:36:39.808Z,3.27
2023-07-26T08:39:07.926Z,2.53
2023-07-26T08:41:36.065Z,2.50
2023-07-26T08:44:03.049Z,2.03
2023-07-26T08:46:29.933Z,2.73
2023-07-26T08:48:57.961Z,2.77
2023-07-26T08:51:25.002Z,2.67
2023-07-26T08:53:51.742Z,5.37
2023-07-26T08:56:19.128Z,2.47
2023-07-26T08:58:45.576Z,2.67
2023-07-26T09:01:12.064Z,2.90
2023-07-26T09:03:38.634Z,4.07
2023-07-26T09:06:06.508Z,3.03
2023-07-26T09:08:33.592Z,2.90
2023-07-26T09:11:04.304Z,2.67
2023-07-26T09:13:30.930Z,2.60
2023-07-26T09:16:01.506Z,5.07
2023-07-26T09:18:29.489Z,3.10
2023-07-26T09:21:03.296Z,2.50
2023-07-26T09:23:29.880Z,2.80
2023-07-26T09:25:56.322Z,2.80
2023-07-26T09:28:22.999Z,2.53
2023-07-26T09:30:52.297Z,2.57
2023-07-26T09:33:18.900Z,2.40
2023-07-26T09:35:46.875Z,3.53
2023-07-26T09:38:24.237Z,2.70
2023-07-26T09:40:50.747Z,2.37
2023-07-26T09:43:30.540Z,1.30
2023-07-26T09:46:07.035Z,3.10
2023-07-26T09:53:37.298Z,3.03
2023-07-26T09:56:04.470Z,1.80
2023-07-26T09:58:33.418Z,2.17
2023-07-26T10:01:02.361Z,1.97
2023-07-26T10:03:29.175Z,6.13
2023-07-26T10:05:56.412Z,1.53
2023-07-26T10:08:23.817Z,1.43
2023-07-26T10:10:51.321Z,2.27
2023-07-26T10:13:20.170Z,2.50
2023-07-26T10:15:49.974Z,1.37
2023-07-26T10:18:18.949Z,1.50
2023-07-26T10:20:46.949Z,2.13
2023-07-26T10:23:13.555Z,2.53
2023-07-26T10:25:41.066Z,3.83
2023-07-26T10:28:08.340Z,2.80
2023-07-26T10:30:34.998Z,3.23
2023-07-26T10:33:01.561Z,2.87
2023-07-26T10:35:33.268Z,4.80
2023-07-26T10:38:01.245Z,2.30
2023-07-26T10:40:33.831Z,2.47
2023-07-26T10:43:01.047Z,4.30
2023-07-26T10:45:45.141Z,4.27
2023-07-26T10:48:23.677Z,3.33
2023-07-26T10:50:50.131Z,1.67
2023-07-26T10:53:37.188Z,1.33
2023-07-26T10:56:18.935Z,2.97
2023-07-26T10:59:25.489Z,1.97
2023-07-26T11:02:03.381Z,2.63
2023-07-26T11:04:29.931Z,2.17
2023-07-26T11:06:58.266Z,1.63
2023-07-26T11:09:26.896Z,1.43
2023-07-26T11:12:04.420Z,1.60
2023-07-26T11:14:33.644Z,2.40
2023-07-26T11:17:10.353Z,2.40
2023-07-26T11:19:47.265Z,3.20
2023-07-26T11:22:13.720Z,3.43
2023-07-26T11:24:40.261Z,2.80
2023-07-26T11:27:07.689Z,2.43
2023-07-26T11:29:35.242Z,2.97
2023-07-26T11:32:02.246Z,2.97
2023-07-26T11:34:28.757Z,3.20
2023-07-26T11:37:09.511Z,1.73
2023-07-26T11:39:36.429Z,2.70
2023-07-26T11:42:03.074Z,4.00
2023-07-26T11:44:29.572Z,5.17
2023-07-26T11:46:56.687Z,1.63
2023-07-26T11:49:24.430Z,1.90
2023-07-26T11:51:52.195Z,1.40
2023-07-26T11:54:18.880Z,2.50
2023-07-26T11:56:46.544Z,1.70
2023-07-26T11:59:13.700Z,2.20
2023-07-26T12:01:40.605Z,1.87
2023-07-26T12:04:14.768Z,1.63
2023-07-26T12:06:42.919Z,1.83
2023-07-26T12:09:12.794Z,0.80
2023-07-26T12:11:42.706Z,2.73
2023-07-26T12:14:10.035Z,1.10
2023-07-26T12:16:36.890Z,1.60
2023-07-26T12:19:04.781Z,1.20
2023-07-26T12:21:31.781Z,1.13
2023-07-26T12:24:03.390Z,1.03
2023-07-26T12:26:33.751Z,0.60
2023-07-26T12:29:01.898Z,1.17
2023-07-26T12:31:31.092Z,2.17
2023-07-26T12:33:58.802Z,1.33
2023-07-26T12:36:31.465Z,0.80
2023-07-26T12:38:58.825Z,1.07
2023-07-26T12:41:25.496Z,1.80
2023-07-26T12:43:57.692Z,1.23
2023-07-26T12:46:24.229Z,2.20
2023-07-26T12:48:54.686Z,1.90
2023-07-26T12:51:21.165Z,1.67
2023-07-26T12:53:47.669Z,1.63
2023-07-26T12:56:14.173Z,1.70
2023-07-26T12:58:49.445Z,1.90
2023-07-26T13:01:27.087Z,1.73
2023-07-26T13:03:53.710Z,1.07
2023-07-26T13:06:20.291Z,0.93
2023-07-26T13:08:46.707Z,1.60
2023-07-26T13:11:14.360Z,1.53
2023-07-26T13:13:40.839Z,1.00
2023-07-26T13:16:07.415Z,1.40
2023-07-26T13:18:34.031Z,1.70
2023-07-26T13:21:00.605Z,1.70
2023-07-26T13:23:27.102Z,1.40
2023-07-26T13:25:53.904Z,1.17
2023-07-26T13:28:20.334Z,2.23
2023-07-26T13:30:46.781Z,2.33
2023-07-26T13:33:13.329Z,1.50
2023-07-26T13:35:40.186Z,2.30
2023-07-26T13:38:06.673Z,1.87
2023-07-26T13:40:33.086Z,1.63
2023-07-26T13:43:00.884Z,1.77
2023-07-26T13:45:27.339Z,6.20
2023-07-26T13:47:53.816Z,1.87
2023-07-26T13:50:20.282Z,2.17
2023-07-26T13:52:46.738Z,3.77
2023-07-26T13:55:13.172Z,3.70
2023-07-26T13:57:40.105Z,2.30
2023-07-26T14:00:07.516Z,6.50
2023-07-26T14:02:34.358Z,2.17
2023-07-26T14:05:01.013Z,3.10
2023-07-26T14:07:27.456Z,2.67
2023-07-26T14:09:54.089Z,3.47
2023-07-26T14:12:20.576Z,3.43
2023-07-26T14:14:47.048Z,1.80
2023-07-26T14:17:13.552Z,3.10
2023-07-26T14:19:40.004Z,2.80
2023-07-26T14:22:06.688Z,2.67
2023-07-26T14:24:33.213Z,1.80
2023-07-26T14:26:59.646Z,2.83
2023-07-26T14:29:26.409Z,2.63
2023-07-26T14:31:54.041Z,3.17
2023-07-26T14:34:22.677Z,2.77
2023-07-26T14:36:49.484Z,2.67
2023-07-26T14:39:15.924Z,2.57
2023-07-26T14:41:42.339Z,2.13
2023-07-26T14:44:08.909Z,2.53
2023-07-26T14:46:35.726Z,1.87
2023-07-26T14:49:02.465Z,2.27
2023-07-26T14:51:28.925Z,2.53
2023-07-26T14:53:55.372Z,2.03
2023-07-26T14:56:21.860Z,1.80
2023-07-26T14:58:48.300Z,0.97
2023-07-26T15:01:14.797Z,0.97
2023-07-26T15:03:41.461Z,0.83
2023-07-26T15:06:08.028Z,1.70
2023-07-26T15:08:34.772Z,2.43
2023-07-26T15:11:01.246Z,0.93
2023-07-26T15:13:27.672Z,1.13
2023-07-26T15:15:54.101Z,1.77
2023-07-26T15:18:20.589Z,2.23
2023-07-26T15:20:47.054Z,1.37
2023-07-26T15:23:13.526Z,1.50
2023-07-26T15:25:40.043Z,0.80
2023-07-26T15:28:08.101Z,0.90
2023-07-26T15:30:37.949Z,2.27
2023-07-26T15:33:04.920Z,3.77
2023-07-26T15:35:37.806Z,1.27
2023-07-26T15:38:04.951Z,1.00
2023-07-26T15:40:32.960Z,1.40
2023-07-26T15:48:15.175Z,2.30
2023-07-26T15:53:11.036Z,3.20
2023-07-26T15:55:37.457Z,3.27
2023-07-26T15:58:03.927Z,3.10
2023-07-26T16:00:31.129Z,2.73
2023-07-26T16:10:28.912Z,1.77
2023-07-26T16:12:55.427Z,2.23
2023-07-26T16:20:21.078Z,2.73
2023-07-26T16:22:47.523Z,2.43
2023-07-26T16:25:14.033Z,1.70
2023-07-26T16:27:40.654Z,0.77
2023-07-26T16:30:07.637Z,0.97
2023-07-26T16:32:34.160Z,1.53
2023-07-26T16:35:00.684Z,1.13
2023-07-26T16:37:27.416Z,1.10
2023-07-26T16:39:53.877Z,0.80
2023-07-26T16:42:20.434Z,2.60
2023-07-26T16:44:46.865Z,1.50
2023-07-26T16:47:13.328Z,4.07
2023-07-26T16:49:39.812Z,1.43
2023-07-26T16:52:06.694Z,1.73
2023-07-26T16:54:33.176Z,2.03
2023-07-26T16:56:59.615Z,2.87
2023-07-26T16:59:26.978Z,1.47
2023-07-26T17:01:53.588Z,2.00
2023-07-26T17:04:20.140Z,0.90
2023-07-26T17:06:46.659Z,2.33
2023-07-26T17:09:13.272Z,2.87
2023-07-26T17:11:39.816Z,1.77
2023-07-26T17:14:06.255Z,4.37
2023-07-26T17:16:33.089Z,2.23
2023-07-26T17:18:59.706Z,1.50
2023-07-26T17:21:26.196Z,1.60
2023-07-26T17:23:52.649Z,1.93
2023-07-26T17:26:19.118Z,2.27
2023-07-26T17:28:45.575Z,2.70
2023-07-26T17:31:12.113Z,2.47
2023-07-26T17:33:38.529Z,5.73
2023-07-26T17:36:12.474Z,2.40
2023-07-26T17:38:39.085Z,1.90
2023-07-26T17:41:06.881Z,2.60
2023-07-26T17:43:34.232Z,2.63
2023-07-26T17:46:00.903Z,2.27
2023-07-26T17:48:27.370Z,3.00
2023-07-26T17:50:55.067Z,4.37
2023-07-26T17:53:22.637Z,2.50
2023-07-26T17:55:49.061Z,5.97
2023-07-26T17:58:15.867Z,4.93
2023-07-26T18:00:42.365Z,5.73
2023-07-26T18:03:08.870Z,4.87
2023-07-26T18:05:35.355Z,3.07
2023-07-26T18:08:03.083Z,3.43
2023-07-26T18:10:29.665Z,3.80
2023-07-26T18:12:56.154Z,2.90
2023-07-26T18:15:22.575Z,2.77
2023-07-26T18:17:49.079Z,2.43
2023-07-26T18:20:15.685Z,3.50
2023-07-26T18:22:43.732Z,3.53
2023-07-26T18:25:10.629Z,9.10
2023-07-26T18:27:37.409Z,6.23
2023-07-26T18:30:04.187Z,1.77
2023-07-26T18:32:30.685Z,2.53
2023-07-26T18:34:57.187Z,3.60
2023-07-26T18:37:23.784Z,3.67
2023-07-26T18:39:50.269Z,4.00
2023-07-26T18:42:16.721Z,3.07
2023-07-26T18:44:43.158Z,3.40
2023-07-26T18:47:09.676Z,3.27
2023-07-26T18:49:36.534Z,4.77
2023-07-26T18:52:03.469Z,2.60
2023-07-26T18:54:29.955Z,3.30
2023-07-26T18:56:56.506Z,5.87
2023-07-26T18:59:23.044Z,2.53
2023-07-26T19:01:49.650Z,4.07
2023-07-26T19:04:18.229Z,3.63
2023-07-26T19:06:44.982Z,2.93
2023-07-26T19:09:11.421Z,2.60
2023-07-26T19:11:37.882Z,2.67
2023-07-26T19:14:04.346Z,3.47
2023-07-26T19:16:31.651Z,3.67
2023-07-26T19:18:58.389Z,2.63
2023-07-26T19:21:24.896Z,1.93
2023-07-26T19:23:53.288Z,3.50
2023-07-26T19:26:21.101Z,3.20
2023-07-26T19:28:47.868Z,4.83
2023-07-26T19:31:15.496Z,2.90
2023-07-26T19:33:45.869Z,3.47
2023-07-26T19:36:12.319Z,6.70
2023-07-26T19:38:39.047Z,3.10
2023-07-26T19:41:10.061Z,2.77
2023-07-26T19:43:37.672Z,4.40
2023-07-26T19:46:07.372Z,2.43
2023-07-26T19:48:33.943Z,2.63
2023-07-26T19:51:01.292Z,2.40
2023-07-26T19:53:27.972Z,5.00
2023-07-26T19:55:54.493Z,5.83
2023-07-26T19:58:20.902Z,3.87
2023-07-26T20:00:47.362Z,3.83
2023-07-26T20:03:13.861Z,3.23
2023-07-26T20:05:46.338Z,4.87
2023-07-26T20:08:14.372Z,3.30
2023-07-26T20:10:42.245Z,2.80
2023-07-26T20:13:09.962Z,5.13
2023-07-26T20:15:36.406Z,2.80
2023-07-26T20:18:02.997Z,2.87
2023-07-26T20:20:29.573Z,3.13
2023-07-26T20:22:55.985Z,2.30
2023-07-26T20:25:25.347Z,3.10
2023-07-26T20:27:51.801Z,3.07
2023-07-26T20:30:18.319Z,4.90
2023-07-26T20:32:44.774Z,3.77
2023-07-26T20:35:11.305Z,5.37
2023-07-26T20:37:37.758Z,4.80
2023-07-26T20:40:04.857Z,7.60
2023-07-26T20:42:31.565Z,4.50
2023-07-26T20:44:58.086Z,2.23
2023-07-26T20:47:24.961Z,3.80
2023-07-26T20:49:51.959Z,4.03
2023-07-26T20:52:18.810Z,4.03
2023-07-26T20:54:45.237Z,3.87
2023-07-26T20:57:11.737Z,3.27
2023-07-26T20:59:38.170Z,2.60
2023-07-26T21:02:04.701Z,3.23
2023-07-26T21:04:31.146Z,3.77
2023-07-26T21:06:57.590Z,5.90
2023-07-26T21:09:24.157Z,3.90
2023-07-26T21:11:50.634Z,4.30
2023-07-26T21:14:17.129Z,4.47
2023-07-26T21:16:43.588Z,3.03
2023-07-26T21:19:10.092Z,3.10
2023-07-26T21:21:36.651Z,3.90
2023-07-26T21:24:03.208Z,7.80
2023-07-26T21:26:29.914Z,4.53
2023-07-26T21:28:56.384Z,4.03
2023-07-26T21:31:24.606Z,4.83
2023-07-26T21:33:51.172Z,4.57
2023-07-26T21:36:17.636Z,3.53
2023-07-26T21:38:45.174Z,5.57
2023-07-26T21:41:11.592Z,4.87
2023-07-26T21:43:38.117Z,6.00
2023-07-26T21:46:04.786Z,4.13
2023-07-26T21:48:31.328Z,3.37
2023-07-26T21:50:57.765Z,5.33
2023-07-26T21:53:24.215Z,3.33
2023-07-26T21:55:50.731Z,4.73
2023-07-26T21:58:17.156Z,6.83
2023-07-26T22:00:45.471Z,5.20
2023-07-26T22:03:11.905Z,5.47
2023-07-26T22:05:38.395Z,6.03
2023-07-26T22:08:05.105Z,4.63
2023-07-26T22:10:31.552Z,3.47
2023-07-26T22:12:58.038Z,5.00
2023-07-26T22:15:24.922Z,4.30
2023-07-26T22:17:51.413Z,5.40
2023-07-26T22:20:18.316Z,5.03
2023-07-26T22:22:44.784Z,7.20
2023-07-26T22:25:11.257Z,8.73
2023-07-26T22:27:37.728Z,5.10
2023-07-26T22:30:05.183Z,7.90
2023-07-26T22:32:32.096Z,7.83
2023-07-26T22:34:58.858Z,8.07
2023-07-26T22:37:25.369Z,9.10
2023-07-26T22:39:51.800Z,7.77
2023-07-26T22:42:18.288Z,5.87
2023-07-26T22:44:45.323Z,6.60
2023-07-26T22:47:11.943Z,8.10
2023-07-26T22:49:38.410Z,5.57
2023-07-26T22:52:05.371Z,6.50
2023-07-26T22:54:31.867Z,6.63
2023-07-26T22:56:58.400Z,6.10
2023-07-26T22:59:24.836Z,9.33
2023-07-26T23:01:51.271Z,8.87
2023-07-26T23:04:17.722Z,6.57
2023-07-26T23:06:44.252Z,6.17
2023-07-26T23:09:10.728Z,7.77
2023-07-26T23:11:37.220Z,8.30
2023-07-26T23:14:03.687Z,5.93
2023-07-26T23:16:30.157Z,7.63
2023-07-26T23:18:56.644Z,7.73
2023-07-26T23:21:23.076Z,7.63
2023-07-26T23:23:49.653Z,10.87
2023-07-26T23:26:16.236Z,8.33
2023-07-26T23:28:42.639Z,8.10
2023-07-26T23:31:09.088Z,10.27
2023-07-26T23:33:35.857Z,12.53
2023-07-26T23:36:02.307Z,7.90
2023-07-26T23:38:28.753Z,7.60
2023-07-26T23:40:55.264Z,8.73
2023-07-26T23:43:21.744Z,6.70
2023-07-26T23:45:48.157Z,9.77
2023-07-26T23:48:14.598Z,10.50
2023-07-26T23:50:41.040Z,9.83
2023-07-26T23:53:07.516Z,11.13
2023-07-26T23:55:33.962Z,13.30
2023-07-26T23:58:00.475Z,12.93
